createdAt,value
2022-09-30T00:01:07.155Z,96379.25
2022-09-30T00:03:33.125Z,96397.00
2022-09-30T00:05:59.063Z,96387.63
2022-09-30T00:08:25.020Z,96392.00
2022-09-30T00:10:51.679Z,96385.41
2022-09-30T00:13:17.650Z,96386.19
2022-09-30T00:15:43.609Z,96384.84
2022-09-30T00:18:09.564Z,96384.63
2022-09-30T00:20:35.486Z,96388.56
2022-09-30T00:23:01.462Z,96384.13
2022-09-30T00:25:27.456Z,96384.66
2022-09-30T00:27:54.359Z,96394.25
2022-09-30T00:30:20.341Z,96392.78
2022-09-30T00:32:46.262Z,96394.75
2022-09-30T00:35:13.032Z,96396.56
2022-09-30T00:37:39.596Z,96400.31
2022-09-30T00:40:05.588Z,96392.19
2022-09-30T00:42:32.397Z,96394.63
2022-09-30T00:44:58.334Z,96399.03
2022-09-30T00:47:24.309Z,96388.91
2022-09-30T00:49:50.255Z,96388.00
2022-09-30T00:52:16.216Z,96390.41
2022-09-30T00:54:42.188Z,96385.19
2022-09-30T00:57:08.777Z,96398.28
2022-09-30T00:59:34.788Z,96392.19
2022-09-30T01:02:00.762Z,96392.00
2022-09-30T01:04:26.772Z,96390.16
2022-09-30T01:06:52.726Z,96382.19
2022-09-30T01:09:19.740Z,96384.28
2022-09-30T01:11:45.858Z,96387.78
2022-09-30T01:14:11.868Z,96383.63
2022-09-30T01:16:37.896Z,96384.97
2022-09-30T01:19:04.842Z,96383.91
2022-09-30T01:21:30.821Z,96388.44
2022-09-30T01:23:56.788Z,96370.38
2022-09-30T01:26:23.520Z,96380.22
2022-09-30T01:28:50.400Z,96380.22
2022-09-30T01:31:16.393Z,96381.56
2022-09-30T01:33:42.676Z,96383.13
2022-09-30T01:36:08.911Z,96390.72
2022-09-30T01:38:35.163Z,96389.28
2022-09-30T01:41:01.451Z,96390.72
2022-09-30T01:43:27.715Z,96392.81
2022-09-30T01:45:55.440Z,96392.50
2022-09-30T01:48:21.734Z,96394.09
2022-09-30T01:50:47.888Z,96400.75
2022-09-30T03:50:15.822Z,96403.38
2022-09-30T03:52:41.779Z,96404.66
2022-09-30T03:55:08.483Z,96409.16
2022-09-30T03:57:34.464Z,96413.41
2022-09-30T04:00:00.432Z,96419.59
2022-09-30T04:02:26.463Z,96425.72
2022-09-30T04:04:53.157Z,96417.03
2022-09-30T04:07:19.131Z,96424.34
2022-09-30T04:09:45.843Z,96421.69
2022-09-30T04:12:11.895Z,96425.38
2022-09-30T04:14:37.859Z,96433.59
2022-09-30T04:17:03.822Z,96427.00
2022-09-30T04:19:30.491Z,96435.34
2022-09-30T04:21:56.681Z,96434.38
2022-09-30T04:24:23.382Z,96431.16
2022-09-30T04:26:49.307Z,96432.03
2022-09-30T04:29:16.123Z,96435.91
2022-09-30T04:31:42.123Z,96435.19
2022-09-30T04:34:08.126Z,96430.69
2022-09-30T04:36:34.829Z,96434.78
2022-09-30T04:39:00.801Z,96448.13
2022-09-30T04:41:26.779Z,96447.84
2022-09-30T04:43:52.738Z,96453.91
2022-09-30T04:46:18.675Z,96456.22
2022-09-30T04:48:45.577Z,96456.06
2022-09-30T04:51:11.552Z,96463.22
2022-09-30T04:53:37.519Z,96454.47
2022-09-30T04:56:03.503Z,96456.53
2022-09-30T04:58:33.351Z,96457.84
2022-09-30T05:01:00.760Z,96465.84
2022-09-30T05:03:26.727Z,96466.75
2022-09-30T05:05:52.655Z,96474.59
2022-09-30T05:08:18.671Z,96474.78
2022-09-30T05:10:44.595Z,96473.00
2022-09-30T05:13:10.560Z,96478.63
2022-09-30T05:15:37.205Z,96480.78
2022-09-30T05:18:03.401Z,96474.69
2022-09-30T05:20:29.345Z,96481.28
2022-09-30T05:22:56.183Z,96486.41
2022-09-30T05:25:22.114Z,96497.56
2022-09-30T05:27:48.963Z,96493.22
2022-09-30T05:30:14.959Z,96496.75
2022-09-30T05:32:40.931Z,96501.56
2022-09-30T05:35:06.874Z,96507.22
2022-09-30T05:37:32.839Z,96521.00
2022-09-30T05:39:58.799Z,96523.50
2022-09-30T05:42:24.750Z,96528.06
2022-09-30T05:44:51.474Z,96532.56
2022-09-30T05:47:17.461Z,96532.09
2022-09-30T05:49:43.996Z,96534.59
2022-09-30T05:52:09.974Z,96531.69
2022-09-30T05:54:35.965Z,96543.09
2022-09-30T05:57:01.933Z,96541.34
2022-09-30T05:59:28.644Z,96546.41
2022-09-30T06:01:54.754Z,96536.19
2022-09-30T06:04:20.763Z,96543.59
2022-09-30T06:06:46.732Z,96540.84
2022-09-30T06:09:13.523Z,96537.66
2022-09-30T06:11:39.509Z,96541.41
2022-09-30T06:14:05.493Z,96553.38
2022-09-30T06:16:31.465Z,96562.44
2022-09-30T06:18:57.627Z,96569.75
2022-09-30T06:21:24.435Z,96568.66
2022-09-30T06:23:50.388Z,96571.13
2022-09-30T06:26:16.837Z,96567.19
2022-09-30T06:28:43.065Z,96571.78
2022-09-30T06:31:09.111Z,96576.09
2022-09-30T06:38:57.412Z,96584.56
2022-09-30T06:41:23.494Z,96591.53
2022-09-30T08:59:02.296Z,96780.00
2022-09-30T09:06:53.091Z,96772.59
2022-09-30T09:09:19.385Z,96774.03
2022-09-30T09:11:46.044Z,96777.34
2022-09-30T09:14:13.301Z,96795.78
2022-09-30T09:16:39.538Z,96818.03
2022-09-30T09:19:05.775Z,96817.53
2022-09-30T09:21:32.307Z,96816.91
2022-09-30T09:24:01.566Z,96812.44
2022-09-30T09:26:27.613Z,96806.34
2022-09-30T09:28:53.922Z,96815.47
2022-09-30T09:31:20.039Z,96811.28
2022-09-30T09:33:47.151Z,96806.09
2022-09-30T09:36:13.170Z,96805.56
2022-09-30T09:38:39.191Z,96812.25
2022-09-30T09:41:06.544Z,96813.22
2022-09-30T09:43:33.343Z,96807.47
2022-09-30T09:45:59.455Z,96817.16
2022-09-30T09:48:26.171Z,96819.81
2022-09-30T09:50:52.193Z,96833.91
2022-09-30T09:53:18.248Z,96825.56
2022-09-30T09:55:46.019Z,96824.06
2022-09-30T09:58:12.043Z,96822.66
2022-09-30T10:00:38.966Z,96822.91
2022-09-30T10:03:05.007Z,96811.25
2022-09-30T10:05:33.585Z,96823.13
2022-09-30T10:08:00.310Z,96810.22
2022-09-30T10:10:26.354Z,96827.00
2022-09-30T10:12:52.569Z,96822.44
2022-09-30T10:15:20.092Z,96834.16
2022-09-30T10:17:46.169Z,96842.53
2022-09-30T10:20:12.155Z,96838.31
2022-09-30T10:22:39.107Z,96844.00
2022-09-30T10:25:05.093Z,96848.63
2022-09-30T10:27:31.722Z,96849.53
2022-09-30T10:29:57.781Z,96864.63
2022-09-30T10:32:23.769Z,96868.38
2022-09-30T10:34:49.773Z,96872.56
2022-09-30T10:37:15.808Z,96865.81
2022-09-30T10:39:42.590Z,96875.53
2022-09-30T10:42:12.778Z,96870.22
2022-09-30T10:44:38.934Z,96870.28
2022-09-30T10:47:05.783Z,96869.09
2022-09-30T10:49:31.865Z,96874.81
2022-09-30T10:51:57.841Z,96868.88
2022-09-30T10:54:23.873Z,96869.97
2022-09-30T10:56:51.312Z,96862.78
2022-09-30T10:59:17.345Z,96872.66
2022-09-30T11:01:43.529Z,96882.00
2022-09-30T11:04:10.475Z,96888.44
2022-09-30T11:06:36.486Z,96893.69
2022-09-30T11:09:02.527Z,96887.31
2022-09-30T11:11:28.574Z,96896.69
2022-09-30T11:13:56.889Z,96901.44
2022-09-30T11:16:22.972Z,96898.66
2022-09-30T11:18:48.991Z,96901.13
2022-09-30T11:21:15.020Z,96906.53
2022-09-30T11:23:41.681Z,96910.31
2022-09-30T11:26:07.699Z,96913.97
2022-09-30T11:28:34.461Z,96917.56
2022-09-30T11:31:03.763Z,96919.31
2022-09-30T11:33:32.802Z,96923.97
2022-09-30T11:35:58.800Z,96922.94
2022-09-30T11:38:24.795Z,96927.91
2022-09-30T11:43:32.393Z,96914.47
2022-09-30T11:46:02.756Z,96913.94
2022-09-30T11:48:32.822Z,96915.19
2022-09-30T11:50:59.177Z,96917.78
2022-09-30T11:53:25.234Z,96927.78
2022-09-30T14:06:02.277Z,97006.88
2022-09-30T14:08:29.099Z,97001.97
2022-09-30T14:10:55.115Z,97011.91
2022-09-30T14:13:21.166Z,97001.44
2022-09-30T14:15:47.206Z,97001.53
2022-09-30T14:18:14.356Z,97004.13
2022-09-30T14:20:40.368Z,96998.59
2022-09-30T14:23:06.450Z,97003.28
2022-09-30T14:25:32.421Z,97003.84
2022-09-30T14:27:58.509Z,97006.16
2022-09-30T14:30:24.535Z,97009.13
2022-09-30T14:32:50.535Z,97016.44
2022-09-30T14:35:17.285Z,97024.53
2022-09-30T14:37:44.175Z,97019.88
2022-09-30T14:40:10.176Z,97022.69
2022-09-30T14:42:36.157Z,97024.94
2022-09-30T14:45:02.244Z,97030.16
2022-09-30T14:47:28.247Z,97034.19
2022-09-30T14:49:55.218Z,97023.63
2022-09-30T14:52:21.227Z,97027.41
2022-09-30T14:54:47.215Z,97032.91
2022-09-30T14:57:13.200Z,97029.16
2022-09-30T14:59:42.107Z,97029.97
2022-09-30T15:02:10.567Z,97033.66
2022-09-30T15:04:36.642Z,97045.03
2022-09-30T15:09:47.621Z,97052.69
2022-09-30T15:12:13.668Z,97046.97
2022-09-30T15:14:39.640Z,97049.28
2022-09-30T15:17:06.405Z,97048.91
2022-09-30T15:19:32.508Z,97062.59
2022-09-30T15:21:58.491Z,97063.66
2022-09-30T15:24:24.701Z,97061.69
2022-09-30T15:26:50.718Z,97067.75
2022-09-30T15:29:16.709Z,97063.47
2022-09-30T15:31:43.546Z,97073.88
2022-09-30T15:34:09.891Z,97068.88
2022-09-30T15:36:35.944Z,97073.63
2022-09-30T15:39:01.947Z,97072.25
2022-09-30T15:41:28.862Z,97073.94
2022-09-30T15:43:54.813Z,97066.47
2022-09-30T15:46:20.868Z,97063.69
2022-09-30T15:48:47.592Z,97064.66
2022-09-30T15:51:13.780Z,97066.66
2022-09-30T15:53:39.777Z,97075.50
2022-09-30T15:56:05.751Z,97080.72
2022-09-30T15:58:32.623Z,97086.31
2022-09-30T16:00:59.446Z,97098.38
2022-09-30T16:03:25.561Z,97092.09
2022-09-30T16:05:53.988Z,97101.72
2022-09-30T16:08:20.260Z,97090.28
2022-09-30T16:10:46.243Z,97095.09
2022-09-30T16:13:13.008Z,97089.94
2022-09-30T16:15:39.005Z,97093.56
2022-09-30T16:18:05.055Z,97097.28
2022-09-30T16:25:55.824Z,97099.41
2022-09-30T16:28:21.897Z,97091.66
2022-09-30T16:30:48.131Z,97099.88
2022-09-30T18:01:00.703Z,97157.38
2022-09-30T18:03:26.734Z,97160.31
2022-09-30T18:05:52.710Z,97166.16
2022-09-30T18:08:19.230Z,97165.75
2022-09-30T18:10:45.214Z,97164.56
2022-09-30T18:13:11.198Z,97169.31
2022-09-30T18:15:37.801Z,97164.13
2022-09-30T18:18:03.776Z,97173.28
2022-09-30T18:20:29.726Z,97171.28
2022-09-30T18:22:56.627Z,97178.91
2022-09-30T18:25:23.480Z,97172.63
2022-09-30T18:27:49.700Z,97181.94
2022-09-30T18:30:16.746Z,97180.63
2022-09-30T18:32:42.761Z,97181.66
2022-09-30T18:35:08.782Z,97186.78
2022-09-30T18:37:35.722Z,97179.53
2022-09-30T18:40:01.742Z,97181.75
2022-09-30T18:42:27.765Z,97177.81
2022-09-30T18:44:53.706Z,97178.03
2022-09-30T18:47:20.512Z,97185.38
2022-09-30T18:49:46.531Z,97182.97
2022-09-30T18:52:15.248Z,97178.50
2022-09-30T18:54:41.435Z,97175.94
2022-09-30T18:57:08.199Z,97185.91
2022-09-30T18:59:34.187Z,97180.91
2022-09-30T19:02:00.597Z,97182.16
2022-09-30T19:04:26.664Z,97179.97
2022-09-30T19:06:52.665Z,97168.69
2022-09-30T19:09:18.658Z,97169.31
2022-09-30T19:11:44.673Z,97162.44
2022-09-30T19:14:10.639Z,97161.00
2022-09-30T19:16:38.805Z,97163.72
2022-09-30T19:19:05.178Z,97161.22
2022-09-30T19:21:31.432Z,97158.38
2022-09-30T19:23:57.579Z,97160.53
2022-09-30T19:26:23.566Z,97157.63
2022-09-30T19:28:49.570Z,97164.56
2022-09-30T19:31:15.646Z,97164.09
2022-09-30T19:33:54.011Z,97168.94
2022-09-30T19:36:21.648Z,97166.16
2022-09-30T19:38:47.837Z,97165.38
2022-09-30T19:41:13.860Z,97163.88
2022-09-30T19:43:39.824Z,97151.78
2022-09-30T19:46:06.767Z,97152.66
2022-09-30T19:48:32.820Z,97148.78
2022-09-30T19:50:58.796Z,97157.78
2022-09-30T19:53:30.494Z,97146.97
2022-09-30T19:58:40.862Z,97149.88
2022-09-30T20:01:07.659Z,97153.63
2022-09-30T20:03:33.707Z,97153.72
2022-09-30T20:05:59.888Z,97164.91
2022-09-30T20:08:25.930Z,97161.78
2022-09-30T20:10:51.923Z,97154.31
2022-09-30T20:13:18.071Z,97161.41
2022-09-30T20:15:46.341Z,97160.75
2022-09-30T20:18:12.502Z,97161.91
2022-09-30T20:20:38.491Z,97153.34
2022-09-30T20:23:05.213Z,97156.59
2022-09-30T20:25:31.204Z,97152.69
2022-09-30T20:27:57.227Z,97158.66
2022-09-30T20:30:23.233Z,97168.31
2022-09-30T20:32:49.252Z,97173.97
2022-09-30T20:35:15.931Z,97174.22
2022-09-30T20:37:41.921Z,97177.03
2022-09-30T20:40:08.650Z,97166.66
2022-09-30T20:42:34.603Z,97177.44
2022-09-30T20:45:00.619Z,97179.00
2022-09-30T20:47:26.587Z,97180.38
2022-09-30T21:00:35.876Z,97171.28
2022-09-30T21:03:01.996Z,97180.28
2022-09-30T23:13:34.875Z,97134.09
2022-09-30T23:16:00.870Z,97136.28
2022-09-30T23:23:40.744Z,97142.31
2022-09-30T23:26:07.361Z,97154.66
2022-09-30T23:28:33.345Z,97136.09
2022-09-30T23:30:59.342Z,97141.34
2022-09-30T23:33:26.263Z,97140.34
2022-09-30T23:35:52.297Z,97144.56
2022-09-30T23:38:18.279Z,97148.44
2022-09-30T23:40:44.274Z,97147.84
2022-09-30T23:43:10.236Z,97151.09
2022-09-30T23:45:36.269Z,97153.03
2022-09-30T23:48:03.023Z,97155.13
2022-09-30T23:50:29.027Z,97159.75
2022-09-30T23:52:55.006Z,97156.31
2022-09-30T23:55:21.411Z,97161.41
2022-09-30T23:57:47.441Z,97164.22
